Terminal Aerodrome Forecast
Issued by NWS

Home | Current Version | Previous Version | Text Only | Print | Product List | Glossary On
Versions: 1 2 3 4 5 6 7 8 9 10 11 12 13 14 15 16 17 18 19 20 21 22 23 24 25 26 27 28
000
FTUS43 KDMX 221158 AAA
TAFOTM
TAF AMD
KOTM 221158Z 2212/2312 18013KT P6SM VCSH SCT080 BKN110
      TEMPO 2213/2214 -SHRA BKN080
     FM221700 20010KT P6SM -SHRA BKN025
     FM222000 21014G22KT P6SM VCSH BKN045
     FM222300 26014KT P6SM BKN060
     FM230300 29012KT P6SM BKN020=

USA.gov is the U.S. government's official web portal to all federal, state and local government web resources and services.